Terminal Aerodrome Forecast
Issued by NWS Detroit/Pontiac, MI

Home | Current Version | Previous Version | Text Only | Print | Product List | Glossary On
Versions: 1 2 3 4 5 6 7 8 9 10 11 12 13 14 15 16 17 18 19 20 21 22 23 24 25 26
662
FTUS43 KDTX 242320
TAFDTW
TAF
KDTW 242320Z 2500/2606 11008KT 3SM -RA BR BKN007 OVC015
     FM250100 06005KT 2SM -RA BR OVC006
     FM250800 36003KT 4SM -RA BR OVC009
     FM251100 34008KT P6SM -SHRA BKN015 BKN025
     FM251300 33011KT P6SM SCT025 BKN040
     FM251700 34012G18KT P6SM BKN025 OVC040
     FM260000 34010KT P6SM BKN025=

USA.gov is the U.S. government's official web portal to all federal, state and local government web resources and services.